Time;durP1;ratioP1;P1;durP2;ratioP2;P2;SDS_P1;SDS_P2;PMS_P1;PMS_P2;Temp;Humidity;BMP_temperature;BMP_pressure;BME280_temperature;BME280_humidity;BME280_pressure;Samples;Min_cycle;Max_cycle;Signal;HPM_P1;HPM_P2
2022/02/24 00:02:06;;;;;;;11.73;4.53;;;8.00;99.90;;;;;;5019417;28;20194;-70
2022/02/24 00:04:35;;;;;;;10.57;4.10;;;8.10;99.90;;;;;;5027903;28;20212;-70
2022/02/24 00:07:05;;;;;;;13.33;4.30;;;8.00;99.90;;;;;;5026101;28;20240;-70
2022/02/24 00:09:34;;;;;;;15.30;4.43;;;8.00;99.90;;;;;;5025525;28;20194;-69
2022/02/24 00:12:05;;;;;;;14.53;4.20;;;8.00;99.90;;;;;;5024720;28;20719;-69
2022/02/24 00:14:34;;;;;;;14.47;4.73;;;8.00;99.90;;;;;;5041221;28;20806;-70
2022/02/24 00:17:07;;;;;;;11.60;4.83;;;8.00;99.90;;;;;;5022275;28;20202;-70
2022/02/24 00:19:35;;;;;;;12.80;4.50;;;8.00;99.90;;;;;;5033080;28;20197;-70
2022/02/24 00:22:08;;;;;;;11.80;4.37;;;8.00;99.90;;;;;;5030605;28;20254;-70
2022/02/24 00:24:36;;;;;;;12.70;4.10;;;7.90;99.90;;;;;;5024795;28;20726;-70
2022/02/24 00:27:07;;;;;;;10.00;4.37;;;7.90;99.90;;;;;;5006305;28;20681;-70
2022/02/24 00:29:36;;;;;;;12.40;4.03;;;7.90;99.90;;;;;;5026488;28;20735;-70
2022/02/24 00:32:05;;;;;;;10.37;4.17;;;8.00;99.90;;;;;;5021275;28;20188;-70
2022/02/24 00:34:34;;;;;;;11.10;3.77;;;7.90;99.90;;;;;;5030766;28;20718;-70
2022/02/24 00:37:04;;;;;;;13.77;4.57;;;7.90;99.90;;;;;;5029738;28;20210;-70
2022/02/24 00:39:33;;;;;;;14.37;3.93;;;7.90;99.90;;;;;;5017542;28;20248;-70
2022/02/24 00:42:02;;;;;;;17.30;4.33;;;7.90;99.90;;;;;;5025052;28;20221;-69
2022/02/24 00:44:31;;;;;;;9.77;3.70;;;8.00;99.90;;;;;;5027755;28;20278;-70
2022/02/24 00:47:00;;;;;;;10.10;4.00;;;7.90;99.90;;;;;;5026035;28;20256;-70
2022/02/24 00:49:28;;;;;;;15.03;4.50;;;8.00;99.90;;;;;;5021909;28;20197;-70
2022/02/24 00:51:57;;;;;;;15.47;3.70;;;7.90;99.90;;;;;;5023536;28;20229;-70
2022/02/24 00:54:26;;;;;;;12.10;3.73;;;7.90;99.90;;;;;;5017455;28;20203;-70
2022/02/24 00:56:56;;;;;;;14.57;4.37;;;7.90;99.90;;;;;;5021828;28;20224;-70
2022/02/24 00:59:24;;;;;;;10.77;4.00;;;7.90;99.90;;;;;;5022838;28;20235;-70
2022/02/24 01:01:53;;;;;;;9.33;3.87;;;7.90;99.90;;;;;;5026674;28;20201;-70
2022/02/24 01:04:22;;;;;;;13.13;3.67;;;7.90;99.90;;;;;;5025258;28;20185;-70
2022/02/24 01:06:50;;;;;;;12.93;4.63;;;7.90;99.90;;;;;;5032868;28;20202;-70
2022/02/24 01:09:19;;;;;;;13.27;4.60;;;7.90;99.90;;;;;;5021090;28;20215;-70
2022/02/24 01:11:49;;;;;;;12.80;3.97;;;7.90;99.90;;;;;;5023776;28;20834;-70
2022/02/24 01:14:21;;;;;;;14.57;4.07;;;7.90;99.90;;;;;;5023814;28;20205;-69
2022/02/24 01:16:50;;;;;;;10.63;4.20;;;8.00;99.90;;;;;;5031520;28;20253;-70
2022/02/24 01:19:21;;;;;;;13.33;3.90;;;7.90;99.90;;;;;;5027654;28;20566;-70
2022/02/24 01:21:49;;;;;;;10.20;3.70;;;7.90;99.90;;;;;;5031600;28;20198;-70
2022/02/24 01:24:18;;;;;;;9.70;4.20;;;8.00;99.90;;;;;;5021936;28;20209;-70
2022/02/24 01:26:47;;;;;;;13.03;3.60;;;8.00;99.90;;;;;;5024813;28;20266;-70
2022/02/24 01:29:15;;;;;;;9.93;3.70;;;8.00;99.90;;;;;;5027924;28;20205;-70
2022/02/24 01:31:45;;;;;;;16.37;3.80;;;8.00;99.90;;;;;;5021445;28;20236;-70
2022/02/24 01:34:16;;;;;;;10.50;4.00;;;8.00;99.90;;;;;;5022942;28;20197;-70
2022/02/24 01:36:45;;;;;;;18.37;4.10;;;8.00;99.90;;;;;;5018025;28;20303;-70
2022/02/24 01:39:14;;;;;;;11.60;3.67;;;8.00;99.90;;;;;;5019562;28;20639;-70
2022/02/24 01:41:43;;;;;;;12.60;3.80;;;8.00;99.90;;;;;;5024842;28;20276;-70
2022/02/24 01:44:14;;;;;;;14.10;3.97;;;8.00;99.90;;;;;;5023992;28;20226;-70
2022/02/24 01:46:44;;;;;;;17.50;4.40;;;8.00;99.90;;;;;;5025881;28;20576;-70
2022/02/24 01:49:13;;;;;;;12.07;3.83;;;8.00;99.90;;;;;;5021710;28;20202;-70
2022/02/24 01:51:42;;;;;;;16.43;4.63;;;8.00;99.90;;;;;;5021599;28;20197;-70
2022/02/24 01:54:10;;;;;;;13.77;4.00;;;8.00;99.90;;;;;;5034776;28;20197;-70
2022/02/24 01:56:39;;;;;;;9.57;3.60;;;8.00;99.90;;;;;;5021329;28;20307;-70
2022/02/24 01:59:07;;;;;;;21.77;4.23;;;8.00;99.90;;;;;;5031313;28;20229;-70
2022/02/24 02:01:36;;;;;;;18.93;3.80;;;8.00;99.90;;;;;;5023365;28;20196;-70
2022/02/24 02:04:06;;;;;;;12.40;3.53;;;7.90;99.90;;;;;;5029135;28;20194;-70
2022/02/24 02:06:37;;;;;;;11.70;3.80;;;7.90;99.90;;;;;;5025267;28;20201;-70
2022/02/24 02:09:07;;;;;;;10.67;3.53;;;7.90;99.90;;;;;;5022504;28;20276;-69
2022/02/24 02:11:35;;;;;;;13.03;3.60;;;7.90;99.90;;;;;;5027976;28;20648;-70
2022/02/24 02:14:04;;;;;;;14.57;3.53;;;7.90;99.90;;;;;;5020443;28;20276;-70
2022/02/24 02:16:35;;;;;;;11.47;3.60;;;7.90;99.90;;;;;;5025792;28;20209;-70
2022/02/24 02:19:04;;;;;;;11.47;3.63;;;7.90;99.90;;;;;;5020365;28;20197;-69
2022/02/24 02:21:34;;;;;;;12.87;3.90;;;7.90;99.90;;;;;;5026513;28;20209;-70
2022/02/24 02:24:03;;;;;;;14.60;3.97;;;8.00;99.90;;;;;;5023453;28;20197;-70
2022/02/24 02:26:31;;;;;;;16.90;3.97;;;8.00;99.90;;;;;;5023137;28;20198;-70
2022/02/24 02:29:00;;;;;;;17.20;4.30;;;8.00;99.90;;;;;;5031803;28;20185;-70
2022/02/24 02:31:29;;;;;;;11.57;3.80;;;8.00;99.90;;;;;;5029852;28;20209;-70
2022/02/24 02:34:02;;;;;;;13.10;3.97;;;8.00;99.90;;;;;;5021732;28;20209;-70
2022/02/24 02:36:33;;;;;;;9.13;3.67;;;7.90;99.90;;;;;;5038568;28;20225;-70
2022/02/24 02:39:02;;;;;;;13.97;4.07;;;7.90;99.90;;;;;;5020865;28;20202;-69
2022/02/24 02:41:31;;;;;;;15.53;4.20;;;7.90;99.90;;;;;;5028276;28;20197;-70
2022/02/24 02:44:00;;;;;;;19.10;4.60;;;7.80;99.90;;;;;;5039140;28;20194;-70
2022/02/24 02:46:29;;;;;;;13.40;3.70;;;7.90;99.90;;;;;;5030489;28;20217;-70
2022/02/24 02:48:57;;;;;;;11.80;3.77;;;7.90;99.90;;;;;;5024913;28;20229;-70
2022/02/24 02:51:26;;;;;;;11.37;4.00;;;7.90;99.90;;;;;;5024601;28;20668;-70
2022/02/24 02:53:56;;;;;;;12.53;3.80;;;7.90;99.90;;;;;;5023693;28;20247;-70
2022/02/24 02:56:25;;;;;;;19.20;4.30;;;7.80;99.90;;;;;;5015298;28;20241;-70
2022/02/24 02:58:54;;;;;;;12.80;3.80;;;7.80;99.90;;;;;;5035359;28;20204;-70
2022/02/24 03:01:22;;;;;;;15.53;3.80;;;7.90;99.90;;;;;;5025117;28;20216;-70
2022/02/24 03:03:51;;;;;;;12.37;3.67;;;7.90;99.90;;;;;;5024093;28;20232;-70
2022/02/24 03:06:20;;;;;;;10.93;3.63;;;7.90;99.90;;;;;;5031591;28;20201;-70
2022/02/24 03:08:49;;;;;;;14.70;4.30;;;7.90;99.90;;;;;;5020139;28;20241;-70
2022/02/24 03:11:19;;;;;;;17.17;4.53;;;7.90;99.90;;;;;;5024777;28;20215;-70
2022/02/24 03:13:50;;;;;;;16.37;3.90;;;7.90;99.90;;;;;;5029840;28;20262;-70
2022/02/24 03:16:18;;;;;;;10.27;3.80;;;7.80;99.90;;;;;;5042563;28;20197;-70
2022/02/24 03:18:46;;;;;;;11.67;3.53;;;7.80;99.90;;;;;;5024295;28;20251;-70
2022/02/24 03:21:15;;;;;;;14.90;4.30;;;7.80;99.90;;;;;;5026146;28;20271;-70
2022/02/24 03:23:45;;;;;;;17.00;3.63;;;7.80;99.90;;;;;;5021723;28;20286;-70
2022/02/24 03:26:14;;;;;;;10.73;3.47;;;7.80;99.90;;;;;;5026148;28;20340;-70
2022/02/24 03:28:44;;;;;;;13.77;3.70;;;7.90;99.90;;;;;;5022575;28;20229;-70
2022/02/24 03:31:13;;;;;;;19.07;3.87;;;7.80;99.90;;;;;;5030964;28;20199;-69
2022/02/24 03:33:42;;;;;;;12.93;4.00;;;7.80;99.90;;;;;;5023459;28;20207;-70
2022/02/24 03:36:12;;;;;;;15.77;4.13;;;7.80;99.90;;;;;;5022719;28;20189;-69
2022/02/24 03:38:40;;;;;;;9.10;3.60;;;7.80;99.90;;;;;;5011738;28;20222;-70
2022/02/24 03:41:09;;;;;;;17.10;3.97;;;7.80;99.90;;;;;;5028210;28;20492;-69
2022/02/24 03:43:37;;;;;;;17.70;3.70;;;7.80;99.90;;;;;;5022676;28;20181;-70
2022/02/24 03:46:07;;;;;;;8.37;3.73;;;7.80;99.90;;;;;;5023864;28;20829;-69
2022/02/24 03:48:35;;;;;;;15.60;3.87;;;7.80;99.90;;;;;;5033628;28;20276;-70
2022/02/24 03:51:04;;;;;;;9.77;3.23;;;7.80;99.90;;;;;;5029173;28;20212;-70
2022/02/24 03:53:33;;;;;;;10.70;3.30;;;7.80;99.90;;;;;;5019755;28;20198;-69
2022/02/24 03:56:01;;;;;;;10.67;3.30;;;7.80;99.90;;;;;;5022891;28;20684;-69
2022/02/24 03:58:30;;;;;;;8.20;3.20;;;7.80;99.90;;;;;;5022304;28;20221;-70
2022/02/24 04:00:58;;;;;;;5.57;2.97;;;7.80;99.90;;;;;;5019931;28;20209;-70
2022/02/24 04:03:34;;;;;;;7.37;2.80;;;7.80;99.90;;;;;;5018612;28;20193;-68
2022/02/24 04:06:05;;;;;;;10.60;3.33;;;7.80;99.90;;;;;;5019625;28;20194;-69
2022/02/24 04:08:34;;;;;;;11.33;2.70;;;7.90;99.90;;;;;;5027230;28;20234;-70
2022/02/24 04:11:05;;;;;;;9.73;3.10;;;7.90;99.90;;;;;;5020982;28;20193;-69
2022/02/24 04:13:34;;;;;;;8.17;2.87;;;7.90;99.90;;;;;;5016945;28;20220;-70
2022/02/24 04:16:02;;;;;;;12.13;2.97;;;7.90;99.90;;;;;;5025276;28;20232;-69
2022/02/24 04:18:31;;;;;;;12.23;3.00;;;7.90;99.90;;;;;;5018177;28;20224;-70
2022/02/24 04:21:01;;;;;;;7.67;2.73;;;7.80;99.90;;;;;;5018424;28;20204;-70
2022/02/24 04:23:30;;;;;;;7.73;2.53;;;7.80;99.90;;;;;;5019675;28;20210;-69
2022/02/24 04:25:59;;;;;;;14.93;3.37;;;7.80;99.90;;;;;;5020430;28;21516;-70
2022/02/24 04:28:28;;;;;;;7.30;2.60;;;7.80;99.90;;;;;;5025242;28;20277;-70
2022/02/24 04:30:56;;;;;;;10.03;3.07;;;7.80;99.90;;;;;;5023174;28;20181;-69
2022/02/24 04:33:25;;;;;;;9.57;3.03;;;7.80;99.90;;;;;;5023616;28;20193;-70
2022/02/24 04:35:54;;;;;;;7.10;2.73;;;7.80;99.90;;;;;;5020032;28;20197;-70
2022/02/24 04:38:24;;;;;;;7.10;2.90;;;7.80;99.90;;;;;;5017696;28;20237;-69
2022/02/24 04:40:52;;;;;;;9.90;2.80;;;7.80;99.90;;;;;;5017975;28;20194;-70
2022/02/24 04:43:21;;;;;;;6.20;2.70;;;7.70;99.90;;;;;;5030347;28;20205;-70
2022/02/24 04:45:50;;;;;;;10.50;3.00;;;7.70;99.90;;;;;;5030617;28;20298;-70
2022/02/24 04:48:20;;;;;;;7.43;2.20;;;7.70;99.90;;;;;;5024512;28;20216;-70
2022/02/24 04:50:49;;;;;;;6.97;2.77;;;7.70;99.90;;;;;;5031567;28;20399;-70
2022/02/24 04:53:18;;;;;;;4.33;2.50;;;7.70;99.90;;;;;;5030793;28;20292;-70
2022/02/24 04:55:48;;;;;;;8.60;2.83;;;7.70;99.90;;;;;;5024955;28;20208;-70
2022/02/24 04:58:18;;;;;;;7.30;3.10;;;7.70;99.90;;;;;;5029973;28;20259;-70
2022/02/24 05:00:48;;;;;;;10.07;2.70;;;7.60;99.90;;;;;;5022717;28;20578;-69
2022/02/24 05:03:21;;;;;;;11.90;2.97;;;7.60;99.90;;;;;;5039667;28;20206;-69
2022/02/24 05:05:51;;;;;;;11.90;3.30;;;7.50;99.90;;;;;;5026982;28;20193;-70
2022/02/24 05:08:20;;;;;;;10.73;2.90;;;7.50;99.90;;;;;;5024561;28;20282;-70
2022/02/24 05:10:50;;;;;;;8.23;3.00;;;7.50;99.90;;;;;;5028765;28;20690;-70
2022/02/24 05:13:18;;;;;;;8.67;2.63;;;7.50;99.90;;;;;;5018234;28;20280;-70
2022/02/24 05:15:47;;;;;;;5.13;2.60;;;7.40;99.90;;;;;;5024108;28;20221;-70
2022/02/24 05:18:16;;;;;;;9.27;3.20;;;7.40;99.90;;;;;;5023830;28;20205;-70
2022/02/24 05:20:45;;;;;;;10.47;2.90;;;7.30;99.90;;;;;;5024858;28;20194;-69
2022/02/24 05:23:14;;;;;;;11.33;2.60;;;7.30;99.90;;;;;;5025727;28;20578;-69
2022/02/24 05:25:42;;;;;;;6.40;2.50;;;7.30;99.90;;;;;;5021093;28;20190;-70
2022/02/24 05:28:13;;;;;;;9.67;3.10;;;7.30;99.90;;;;;;5024927;28;20664;-69
2022/02/24 05:30:41;;;;;;;9.33;2.73;;;7.20;99.90;;;;;;5031093;28;20198;-69
2022/02/24 05:33:10;;;;;;;11.27;2.67;;;7.20;99.90;;;;;;5020572;28;20563;-70
2022/02/24 05:35:39;;;;;;;7.57;2.67;;;7.20;99.90;;;;;;5024247;28;20209;-69
2022/02/24 05:38:07;;;;;;;6.40;2.53;;;7.20;99.90;;;;;;5024634;28;20221;-69
2022/02/24 05:40:36;;;;;;;9.33;2.70;;;7.20;99.90;;;;;;5028698;28;20195;-69
2022/02/24 05:43:05;;;;;;;8.23;2.50;;;7.20;99.90;;;;;;5021186;28;20687;-69
2022/02/24 05:45:35;;;;;;;8.97;2.77;;;7.10;99.90;;;;;;5016075;28;20641;-69
2022/02/24 05:48:03;;;;;;;8.37;2.90;;;7.10;99.90;;;;;;5029214;28;20209;-69
2022/02/24 05:50:32;;;;;;;8.40;2.60;;;7.10;99.90;;;;;;5023393;28;20834;-70
2022/02/24 05:53:02;;;;;;;9.97;2.63;;;7.10;99.90;;;;;;5033093;28;20664;-70
2022/02/24 05:55:31;;;;;;;9.33;2.70;;;7.00;99.90;;;;;;5027525;28;20554;-69
2022/02/24 05:58:00;;;;;;;9.93;3.50;;;7.00;99.90;;;;;;5017992;28;20691;-70
2022/02/24 06:00:28;;;;;;;12.80;3.00;;;7.00;99.90;;;;;;5030612;28;20663;-70
2022/02/24 06:02:58;;;;;;;14.63;3.23;;;7.00;99.90;;;;;;5022347;28;20600;-70
2022/02/24 06:05:27;;;;;;;13.57;3.23;;;7.00;99.90;;;;;;5025229;28;20547;-69
2022/02/24 06:07:56;;;;;;;6.23;2.83;;;7.00;99.90;;;;;;5025502;28;20585;-70
2022/02/24 06:10:25;;;;;;;20.83;3.90;;;7.00;99.90;;;;;;5024111;28;20302;-69
2022/02/24 06:12:57;;;;;;;8.00;3.10;;;7.00;99.90;;;;;;5013979;28;20198;-70
2022/02/24 06:15:26;;;;;;;11.87;2.73;;;6.90;99.90;;;;;;5016822;28;20797;-69
2022/02/24 06:17:54;;;;;;;11.53;3.07;;;6.90;99.90;;;;;;5024009;28;20210;-69
2022/02/24 06:20:24;;;;;;;9.60;3.00;;;7.00;99.90;;;;;;5026230;28;20210;-69
2022/02/24 06:22:54;;;;;;;13.23;3.60;;;7.00;99.90;;;;;;5022102;28;20227;-70
2022/02/24 06:25:23;;;;;;;13.07;3.23;;;7.00;99.90;;;;;;5027153;28;20202;-69
2022/02/24 06:27:51;;;;;;;11.23;3.30;;;6.90;99.90;;;;;;5024757;28;20675;-69
2022/02/24 06:30:20;;;;;;;11.03;3.00;;;6.90;99.90;;;;;;5037763;28;20197;-69
2022/02/24 06:32:48;;;;;;;8.47;3.27;;;6.90;99.90;;;;;;5022681;28;20822;-69
2022/02/24 06:35:17;;;;;;;7.03;3.20;;;7.00;99.90;;;;;;5029621;28;20659;-69
2022/02/24 06:37:47;;;;;;;13.70;3.73;;;7.00;99.90;;;;;;5024962;28;20200;-70
2022/02/24 06:40:16;;;;;;;18.80;3.73;;;7.00;99.90;;;;;;5023977;28;20238;-69
2022/02/24 06:42:44;;;;;;;15.57;3.60;;;6.90;99.90;;;;;;5029193;28;20197;-69
2022/02/24 06:45:14;;;;;;;13.67;3.87;;;7.00;99.90;;;;;;5023340;28;20649;-70
2022/02/24 06:47:43;;;;;;;13.27;3.60;;;7.00;99.90;;;;;;5018956;28;20208;-70
2022/02/24 06:50:12;;;;;;;12.73;3.43;;;7.00;99.90;;;;;;5030705;28;20549;-70
2022/02/24 06:52:41;;;;;;;16.70;3.67;;;7.00;99.90;;;;;;5021868;28;20216;-69
2022/02/24 06:55:12;;;;;;;11.47;4.03;;;7.00;99.90;;;;;;5026394;28;20193;-70
2022/02/24 06:57:44;;;;;;;11.10;3.50;;;7.00;99.90;;;;;;5022446;28;20204;-69
2022/02/24 07:00:14;;;;;;;13.13;4.77;;;7.00;99.90;;;;;;5025649;28;20217;-69
2022/02/24 07:02:43;;;;;;;13.17;3.73;;;7.00;99.90;;;;;;5020224;28;20200;-70
2022/02/24 07:05:12;;;;;;;8.53;3.60;;;7.00;99.90;;;;;;5021333;28;20302;-70
2022/02/24 07:07:41;;;;;;;15.43;3.57;;;7.00;99.90;;;;;;5027571;28;20759;-70
2022/02/24 07:10:13;;;;;;;18.40;3.73;;;7.00;99.90;;;;;;5020472;28;20807;-69
2022/02/24 07:12:43;;;;;;;10.37;3.57;;;7.00;99.90;;;;;;5021008;28;20206;-69
2022/02/24 07:15:14;;;;;;;13.70;3.43;;;7.10;99.90;;;;;;5015456;28;20209;-70
2022/02/24 07:17:43;;;;;;;16.03;4.20;;;7.00;99.90;;;;;;5030083;28;20225;-69
2022/02/24 07:20:13;;;;;;;14.27;3.93;;;7.00;99.90;;;;;;5018531;28;20233;-70
2022/02/24 07:22:41;;;;;;;21.73;3.50;;;7.00;99.90;;;;;;5034444;28;20251;-70
2022/02/24 07:25:13;;;;;;;11.70;3.53;;;7.00;99.90;;;;;;5025853;28;20197;-69
2022/02/24 07:27:41;;;;;;;15.27;3.97;;;7.10;99.90;;;;;;5030679;28;20267;-70
2022/02/24 07:30:12;;;;;;;10.73;3.90;;;7.10;99.90;;;;;;5027265;28;20189;-70
2022/02/24 07:32:41;;;;;;;18.87;4.10;;;7.10;99.90;;;;;;5020522;28;20197;-70
2022/02/24 07:35:13;;;;;;;20.03;3.80;;;7.10;99.90;;;;;;5035481;28;20610;-69
2022/02/24 07:37:41;;;;;;;10.13;3.60;;;7.10;99.90;;;;;;5026750;28;20830;-70
2022/02/24 07:40:14;;;;;;;15.73;3.63;;;7.10;99.90;;;;;;5023150;28;20706;-70
2022/02/24 07:42:43;;;;;;;8.40;4.03;;;7.20;99.90;;;;;;5040446;28;20259;-69
2022/02/24 07:45:14;;;;;;;13.20;3.47;;;7.20;99.90;;;;;;5017852;28;20240;-69
2022/02/24 07:47:43;;;;;;;12.03;3.47;;;7.20;99.90;;;;;;5022137;28;20203;-70
2022/02/24 07:50:13;;;;;;;9.40;3.90;;;7.20;99.90;;;;;;5021495;28;20245;-70
2022/02/24 07:52:43;;;;;;;17.20;3.93;;;7.20;99.90;;;;;;5046858;28;20907;-70
2022/02/24 07:55:13;;;;;;;13.57;4.10;;;7.30;99.90;;;;;;5021969;28;20205;-70
2022/02/24 07:57:44;;;;;;;10.90;3.80;;;7.30;99.90;;;;;;5026953;28;20236;-69
2022/02/24 08:00:14;;;;;;;15.80;3.70;;;7.30;99.90;;;;;;5015551;28;20698;-69
2022/02/24 08:02:43;;;;;;;18.70;4.20;;;7.30;99.90;;;;;;5016343;28;20679;-69
2022/02/24 08:05:13;;;;;;;16.30;3.73;;;7.40;99.90;;;;;;5027466;28;20198;-69
2022/02/24 08:07:41;;;;;;;16.40;4.43;;;7.30;99.90;;;;;;5023496;28;20245;-70
2022/02/24 08:10:10;;;;;;;12.17;3.67;;;7.30;99.90;;;;;;5017269;28;20221;-70
2022/02/24 08:12:43;;;;;;;13.80;3.50;;;7.30;99.90;;;;;;5034995;28;20240;-69
2022/02/24 08:15:15;;;;;;;9.30;3.57;;;7.30;99.90;;;;;;5019465;28;20201;-69
2022/02/24 08:17:44;;;;;;;11.73;3.30;;;7.40;99.90;;;;;;5022368;28;20201;-70
2022/02/24 08:20:13;;;;;;;14.07;3.43;;;7.40;99.90;;;;;;5018372;28;20245;-69
2022/02/24 08:22:43;;;;;;;13.70;3.80;;;7.40;99.90;;;;;;5034452;28;20695;-70
2022/02/24 08:25:14;;;;;;;15.67;3.70;;;7.40;99.90;;;;;;5021464;28;20255;-69
2022/02/24 08:27:44;;;;;;;8.23;3.17;;;7.50;99.90;;;;;;5017468;28;20206;-69
2022/02/24 08:30:17;;;;;;;10.63;3.10;;;7.50;99.90;;;;;;5018249;28;20192;-70
2022/02/24 08:32:46;;;;;;;11.00;3.50;;;7.60;99.90;;;;;;5015410;28;20202;-70
2022/02/24 08:35:16;;;;;;;11.60;3.63;;;7.60;99.90;;;;;;5020147;28;20277;-70
2022/02/24 08:37:47;;;;;;;18.07;3.20;;;7.60;99.90;;;;;;5023241;28;20205;-69
2022/02/24 08:40:19;;;;;;;12.87;3.10;;;7.60;99.90;;;;;;5019729;28;20308;-69
2022/02/24 08:42:48;;;;;;;8.30;3.00;;;7.60;99.90;;;;;;5021303;28;20205;-70
2022/02/24 08:45:19;;;;;;;11.97;3.20;;;7.60;99.90;;;;;;5014949;28;20193;-69
2022/02/24 08:47:48;;;;;;;11.63;3.53;;;7.50;99.90;;;;;;5021122;28;20550;-70
2022/02/24 08:50:16;;;;;;;10.23;2.90;;;7.50;99.90;;;;;;5023993;28;20321;-69
2022/02/24 08:53:03;;;;;;;13.07;3.27;;;7.50;99.90;;;;;;5021326;28;20213;-69
2022/02/24 08:55:32;;;;;;;11.60;3.07;;;7.60;99.90;;;;;;5021411;28;20667;-70
2022/02/24 08:58:03;;;;;;;6.93;3.03;;;7.60;99.90;;;;;;5024195;28;20525;-69
2022/02/24 09:00:35;;;;;;;11.90;2.97;;;7.70;99.90;;;;;;5013391;28;20233;-70
2022/02/24 09:03:04;;;;;;;11.43;3.27;;;7.80;99.90;;;;;;5027917;28;20244;-69
2022/02/24 09:05:35;;;;;;;17.73;3.77;;;7.80;99.90;;;;;;5016678;28;20233;-70
2022/02/24 09:08:04;;;;;;;11.17;2.63;;;7.90;99.90;;;;;;5033337;28;20235;-69
2022/02/24 09:10:35;;;;;;;11.90;3.33;;;8.10;99.90;;;;;;5029923;28;20273;-69
2022/02/24 09:13:04;;;;;;;15.73;3.27;;;8.40;99.90;;;;;;5022164;28;20208;-70
2022/02/24 09:15:37;;;;;;;21.63;3.30;;;8.50;99.90;;;;;;5011497;28;20196;-69
2022/02/24 09:18:08;;;;;;;11.07;3.47;;;8.80;99.90;;;;;;5026950;28;20198;-69
2022/02/24 09:20:39;;;;;;;7.10;2.60;;;9.40;99.90;;;;;;5020390;28;20249;-70
2022/02/24 09:23:08;;;;;;;9.63;2.97;;;9.90;99.90;;;;;;5005549;28;20194;-70
2022/02/24 09:25:38;;;;;;;6.63;2.80;;;10.40;99.90;;;;;;5021665;28;20570;-70
2022/02/24 09:28:07;;;;;;;7.63;3.10;;;10.70;99.90;;;;;;5027344;28;20198;-69
2022/02/24 09:30:37;;;;;;;10.67;2.97;;;10.90;99.90;;;;;;5021860;28;20186;-70
2022/02/24 09:33:06;;;;;;;13.63;2.80;;;11.00;99.90;;;;;;5027918;28;20200;-70
2022/02/24 09:35:34;;;;;;;7.80;2.60;;;11.20;99.90;;;;;;5022787;28;20273;-70
2022/02/24 09:38:04;;;;;;;5.93;3.10;;;11.40;99.90;;;;;;5024616;28;20201;-70
2022/02/24 09:40:34;;;;;;;9.57;3.00;;;11.60;99.90;;;;;;5026257;28;20332;-70
2022/02/24 09:43:16;;;;;;;11.40;2.97;;;11.60;99.90;;;;;;5029458;28;20220;-70
2022/02/24 09:45:48;;;;;;;9.30;3.13;;;11.50;99.90;;;;;;5021668;28;20193;-70
2022/02/24 09:48:19;;;;;;;11.17;3.00;;;11.50;99.90;;;;;;5022853;28;20322;-70
2022/02/24 09:50:51;;;;;;;5.17;2.60;;;11.80;99.90;;;;;;5019855;28;20198;-70
2022/02/24 09:53:20;;;;;;;7.90;2.87;;;11.80;99.90;;;;;;5031921;28;20678;-70
2022/02/24 09:55:49;;;;;;;10.93;2.87;;;11.90;99.90;;;;;;5021423;28;20206;-70
2022/02/24 09:58:17;;;;;;;10.13;3.10;;;12.00;99.90;;;;;;5030340;28;20243;-71
2022/02/24 10:00:49;;;;;;;6.70;3.20;;;12.00;99.90;;;;;;5027509;28;20241;-70
2022/02/24 10:03:29;;;;;;;4.87;2.57;;;12.00;99.90;;;;;;5022166;28;20200;-70
2022/02/24 10:05:59;;;;;;;7.40;2.77;;;12.20;99.90;;;;;;5023977;28;20313;-70
2022/02/24 10:08:29;;;;;;;7.83;3.13;;;12.20;99.90;;;;;;5019718;28;20241;-71
2022/02/24 10:11:00;;;;;;;8.43;2.53;;;12.40;99.90;;;;;;5017834;28;20194;-71
2022/02/24 10:13:30;;;;;;;7.50;2.67;;;12.50;99.90;;;;;;5024523;28;20259;-71
2022/02/24 10:16:01;;;;;;;9.40;3.00;;;12.70;99.90;;;;;;5021842;28;20599;-72
2022/02/24 10:18:33;;;;;;;6.30;2.70;;;12.70;99.90;;;;;;5035583;28;20727;-71
2022/02/24 10:21:04;;;;;;;9.50;2.83;;;12.80;99.90;;;;;;5030967;28;20264;-70
2022/02/24 10:23:35;;;;;;;8.10;2.50;;;12.80;99.90;;;;;;5024899;28;20697;-71
2022/02/24 10:26:06;;;;;;;7.30;3.23;;;12.70;99.90;;;;;;5021250;28;20198;-70
2022/02/24 10:28:40;;;;;;;7.77;2.90;;;12.80;99.90;;;;;;5024073;28;20198;-71
2022/02/24 10:31:12;;;;;;;7.07;2.30;;;13.00;99.90;;;;;;5022704;28;20190;-71
2022/02/24 10:33:43;;;;;;;8.97;2.70;;;13.60;99.90;;;;;;5030764;28;20660;-70
2022/02/24 10:36:17;;;;;;;7.23;2.47;;;13.80;99.90;;;;;;5032439;28;20190;-71
2022/02/24 10:38:58;;;;;;;8.30;3.33;;;14.00;99.90;;;;;;5022060;28;20200;-71
2022/02/24 10:41:29;;;;;;;6.67;2.70;;;13.80;99.90;;;;;;5021274;28;20217;-71
2022/02/24 10:44:20;;;;;;;9.00;2.63;;;13.80;99.90;;;;;;5025823;28;20199;-71
2022/02/24 10:47:11;;;;;;;6.40;2.90;;;13.90;99.90;;;;;;5025341;28;20251;-71
2022/02/24 10:49:43;;;;;;;8.00;2.60;;;13.80;99.90;;;;;;5025372;28;20201;-71
2022/02/24 10:52:14;;;;;;;7.50;2.57;;;13.90;99.90;;;;;;5027653;28;20196;-72
2022/02/24 10:54:47;;;;;;;7.10;2.50;;;13.30;99.90;;;;;;5023715;28;20219;-71
2022/02/24 10:57:21;;;;;;;7.73;2.50;;;12.80;99.90;;;;;;5025600;28;20189;-71
2022/02/24 10:59:50;;;;;;;8.13;2.60;;;12.50;99.90;;;;;;5026951;28;20300;-71
2022/02/24 11:02:23;;;;;;;7.90;2.50;;;12.80;99.90;;;;;;5017319;28;20284;-71
2022/02/24 11:05:29;;;;;;;7.93;2.30;;;13.40;99.90;;;;;;5022823;28;20228;-71
2022/02/24 11:08:06;;;;;;;8.57;2.43;;;14.10;99.90;;;;;;5021871;28;20247;-73
2022/02/24 11:10:36;;;;;;;8.83;3.00;;;14.00;99.90;;;;;;5013327;28;20197;-71
2022/02/24 11:13:04;;;;;;;5.17;2.30;;;13.90;99.90;;;;;;5021163;28;20216;-70
2022/02/24 11:15:34;;;;;;;6.63;2.60;;;13.30;99.90;;;;;;5023045;28;20673;-72
2022/02/24 11:18:04;;;;;;;9.97;2.50;;;12.60;99.90;;;;;;5022731;28;20236;-70
2022/02/24 11:20:33;;;;;;;5.00;2.30;;;12.30;99.90;;;;;;5034381;28;20210;-71
2022/02/24 11:23:02;;;;;;;9.27;2.30;;;12.00;99.90;;;;;;5015540;28;20360;-70
2022/02/24 11:25:33;;;;;;;7.37;2.17;;;11.70;99.90;;;;;;5022619;28;20197;-71
2022/02/24 11:28:06;;;;;;;6.17;2.50;;;11.50;99.90;;;;;;5017841;28;20706;-71
2022/02/24 11:30:39;;;;;;;7.60;2.50;;;11.40;99.90;;;;;;5024834;28;20189;-70
2022/02/24 11:33:09;;;;;;;7.97;2.10;;;11.30;99.90;;;;;;5025007;28;20300;-71
2022/02/24 11:35:38;;;;;;;3.57;2.17;;;11.20;99.90;;;;;;5024188;28;20289;-71
2022/02/24 11:38:11;;;;;;;13.53;3.03;;;11.20;99.90;;;;;;5021962;28;20201;-72
2022/02/24 11:40:41;;;;;;;6.50;2.23;;;11.30;99.90;;;;;;5021741;28;20255;-71
2022/02/24 11:43:12;;;;;;;15.47;2.93;;;11.30;99.90;;;;;;5021425;28;20224;-71
2022/02/24 11:45:47;;;;;;;55.67;6.37;;;11.40;99.90;;;;;;5033734;28;20259;-71
2022/02/24 11:48:20;;;;;;;42.83;5.03;;;11.50;99.90;;;;;;5029034;28;20207;-72
2022/02/24 11:50:56;;;;;;;21.87;3.93;;;11.60;99.90;;;;;;5033248;28;20197;-72
2022/02/24 11:53:36;;;;;;;11.70;3.10;;;11.60;99.90;;;;;;5031828;28;20259;-71
2022/02/24 11:56:06;;;;;;;11.80;2.90;;;11.40;99.90;;;;;;5026741;28;20277;-71
2022/02/24 11:58:48;;;;;;;10.63;2.40;;;11.20;99.90;;;;;;5019535;28;20216;-71
2022/02/24 12:01:38;;;;;;;4.23;2.33;;;11.10;99.90;;;;;;5021523;28;20237;-74
2022/02/24 12:04:20;;;;;;;4.23;2.00;;;10.90;99.90;;;;;;5018119;28;20198;-71
2022/02/24 12:06:54;;;;;;;9.50;3.13;;;10.80;99.90;;;;;;5031556;28;20198;-71
2022/02/24 12:09:28;;;;;;;8.40;2.77;;;10.80;99.90;;;;;;5022855;28;20603;-73
2022/02/24 12:11:59;;;;;;;6.60;2.50;;;10.70;99.90;;;;;;5021371;28;20201;-72
2022/02/24 12:14:55;;;;;;;11.83;3.30;;;10.50;99.90;;;;;;5028878;28;20584;-72
2022/02/24 12:17:29;;;;;;;4.07;2.63;;;10.40;99.90;;;;;;5024074;28;20193;-72
2022/02/24 12:20:01;;;;;;;4.80;2.50;;;10.40;99.90;;;;;;5025365;28;20260;-72
2022/02/24 12:22:35;;;;;;;5.90;2.73;;;10.30;99.90;;;;;;5021421;28;20224;-71
2022/02/24 12:25:16;;;;;;;5.90;2.50;;;10.30;99.90;;;;;;5024838;28;20200;-71
2022/02/24 12:27:48;;;;;;;4.33;2.50;;;10.20;99.90;;;;;;5015024;28;20259;-71
2022/02/24 12:30:22;;;;;;;6.77;2.70;;;9.90;99.90;;;;;;5025563;28;20749;-71
2022/02/24 12:32:56;;;;;;;7.53;3.27;;;9.70;99.90;;;;;;5023546;28;20651;-72
2022/02/24 12:35:28;;;;;;;8.77;3.10;;;9.60;99.90;;;;;;5035810;28;20780;-73
2022/02/24 12:37:57;;;;;;;6.43;3.03;;;9.50;99.90;;;;;;5026882;28;20667;-71
2022/02/24 12:40:28;;;;;;;8.37;3.37;;;9.50;99.90;;;;;;5024310;28;20198;-71
2022/02/24 12:42:58;;;;;;;7.63;3.17;;;9.40;99.90;;;;;;5021510;28;20271;-72
2022/02/24 12:45:28;;;;;;;5.60;3.03;;;9.40;99.90;;;;;;5028563;28;20679;-71
2022/02/24 12:47:58;;;;;;;11.50;3.30;;;9.30;99.90;;;;;;5036684;28;20193;-71
2022/02/24 12:50:33;;;;;;;6.00;3.20;;;9.30;99.90;;;;;;5033304;28;20575;-71
2022/02/24 12:53:09;;;;;;;7.93;3.37;;;9.20;99.90;;;;;;5018767;28;20205;-71
2022/02/24 12:55:38;;;;;;;5.87;3.60;;;9.20;99.90;;;;;;5032340;28;20286;-72
2022/02/24 12:58:08;;;;;;;21.73;4.83;;;9.20;99.90;;;;;;5041211;28;20196;-71
2022/02/24 13:00:38;;;;;;;4.67;2.33;;;9.10;99.90;;;;;;5026604;28;20563;-69
2022/02/24 13:03:07;;;;;;;1.40;1.40;;;8.90;99.90;;;;;;5030834;28;20301;-70
2022/02/24 13:05:48;;;;;;;1.30;1.20;;;7.30;99.90;;;;;;5022033;28;20208;-69